sensor_id;sensor_type;location;lat;lon;timestamp;pressure;altitude;pressure_sealevel;temperature;humidity
24620;BME280;12763;55.802;37.404;2023-03-24T00:02:21;98211.25;;;11.08;93.88
24620;BME280;12763;55.802;37.404;2023-03-24T00:04:47;98208.16;;;11.21;93.45
24620;BME280;12763;55.802;37.404;2023-03-24T00:07:14;98209.47;;;11.18;93.23
24620;BME280;12763;55.802;37.404;2023-03-24T00:09:44;98202.63;;;11.21;94.30
24620;BME280;12763;55.802;37.404;2023-03-24T00:12:11;98200.13;;;11.19;93.80
24620;BME280;12763;55.802;37.404;2023-03-24T00:14:39;98197.38;;;11.03;95.27
24620;BME280;12763;55.802;37.404;2023-03-24T00:17:06;98210.59;;;11.39;91.99
24620;BME280;12763;55.802;37.404;2023-03-24T00:19:34;98199.13;;;11.09;94.49
24620;BME280;12763;55.802;37.404;2023-03-24T00:22:04;98192.03;;;10.96;96.06
24620;BME280;12763;55.802;37.404;2023-03-24T00:24:30;98189.25;;;11.13;94.59
24620;BME280;12763;55.802;37.404;2023-03-24T00:26:56;98183.91;;;11.06;94.83
24620;BME280;12763;55.802;37.404;2023-03-24T00:29:22;98175.16;;;11.31;93.79
24620;BME280;12763;55.802;37.404;2023-03-24T00:31:51;98170.53;;;11.15;94.80
24620;BME280;12763;55.802;37.404;2023-03-24T00:34:18;98167.25;;;11.40;92.82
24620;BME280;12763;55.802;37.404;2023-03-24T00:36:49;98159.00;;;11.01;96.09
24620;BME280;12763;55.802;37.404;2023-03-24T00:39:19;98152.56;;;11.34;93.91
24620;BME280;12763;55.802;37.404;2023-03-24T00:41:46;98152.56;;;11.34;93.98
24620;BME280;12763;55.802;37.404;2023-03-24T00:44:14;98146.53;;;11.37;93.78
24620;BME280;12763;55.802;37.404;2023-03-24T00:46:45;98141.81;;;11.16;95.77
24620;BME280;12763;55.802;37.404;2023-03-24T00:49:11;98152.50;;;11.29;93.84
24620;BME280;12763;55.802;37.404;2023-03-24T00:51:40;98177.06;;;11.52;92.82
24620;BME280;12763;55.802;37.404;2023-03-24T00:54:07;98189.28;;;11.35;94.58
24620;BME280;12763;55.802;37.404;2023-03-24T00:56:35;98157.50;;;11.54;92.08
24620;BME280;12763;55.802;37.404;2023-03-24T00:59:03;98161.22;;;11.43;93.04
24620;BME280;12763;55.802;37.404;2023-03-24T01:01:31;98164.53;;;11.66;91.24
24620;BME280;12763;55.802;37.404;2023-03-24T01:03:59;98163.59;;;11.56;92.10
24620;BME280;12763;55.802;37.404;2023-03-24T01:06:27;98166.59;;;11.54;92.42
24620;BME280;12763;55.802;37.404;2023-03-24T01:08:53;98145.50;;;11.43;93.04
24620;BME280;12763;55.802;37.404;2023-03-24T01:11:20;98151.03;;;11.43;93.39
24620;BME280;12763;55.802;37.404;2023-03-24T01:13:48;98148.75;;;11.62;92.06
24620;BME280;12763;55.802;37.404;2023-03-24T01:16:14;98147.81;;;11.51;92.76
24620;BME280;12763;55.802;37.404;2023-03-24T01:18:41;98144.59;;;11.59;92.23
24620;BME280;12763;55.802;37.404;2023-03-24T01:21:08;98143.03;;;11.47;93.97
24620;BME280;12763;55.802;37.404;2023-03-24T01:23:36;98138.41;;;11.52;92.97
24620;BME280;12763;55.802;37.404;2023-03-24T01:26:04;98142.53;;;11.71;91.68
24620;BME280;12763;55.802;37.404;2023-03-24T01:28:30;98140.09;;;11.53;93.42
24620;BME280;12763;55.802;37.404;2023-03-24T01:30:56;98130.91;;;11.48;93.81
24620;BME280;12763;55.802;37.404;2023-03-24T01:33:22;98132.88;;;11.52;93.17
24620;BME280;12763;55.802;37.404;2023-03-24T01:35:48;98125.38;;;11.69;91.74
24620;BME280;12763;55.802;37.404;2023-03-24T01:38:15;98118.81;;;11.54;92.62
24620;BME280;12763;55.802;37.404;2023-03-24T01:40:43;98119.06;;;11.52;92.93
24620;BME280;12763;55.802;37.404;2023-03-24T01:43:17;98118.09;;;11.63;93.05
24620;BME280;12763;55.802;37.404;2023-03-24T01:45:53;98110.66;;;11.42;94.34
24620;BME280;12763;55.802;37.404;2023-03-24T01:51:24;98109.78;;;11.63;93.64
24620;BME280;12763;55.802;37.404;2023-03-24T01:56:23;98109.94;;;11.52;94.02
24620;BME280;12763;55.802;37.404;2023-03-24T01:58:57;98103.00;;;11.49;94.13
24620;BME280;12763;55.802;37.404;2023-03-24T02:01:31;98099.19;;;11.29;95.65
24620;BME280;12763;55.802;37.404;2023-03-24T02:04:23;98096.41;;;11.50;94.49
24620;BME280;12763;55.802;37.404;2023-03-24T02:06:56;98099.91;;;11.67;93.21
24620;BME280;12763;55.802;37.404;2023-03-24T02:09:23;98097.44;;;11.44;94.38
24620;BME280;12763;55.802;37.404;2023-03-24T02:11:49;98095.47;;;11.66;91.80
24620;BME280;12763;55.802;37.404;2023-03-24T02:14:15;98094.38;;;11.67;92.89
24620;BME280;12763;55.802;37.404;2023-03-24T02:22:20;98083.41;;;11.72;92.81
24620;BME280;12763;55.802;37.404;2023-03-24T02:25:11;98076.00;;;11.78;92.32
24620;BME280;12763;55.802;37.404;2023-03-24T02:50:53;98049.94;;;11.69;93.38
24620;BME280;12763;55.802;37.404;2023-03-24T02:59:17;98060.53;;;11.55;94.40
24620;BME280;12763;55.802;37.404;2023-03-24T03:02:06;98048.97;;;11.58;94.29
24620;BME280;12763;55.802;37.404;2023-03-24T03:04:49;98056.69;;;11.56;94.20
24620;BME280;12763;55.802;37.404;2023-03-24T03:07:20;98041.78;;;11.57;93.92
24620;BME280;12763;55.802;37.404;2023-03-24T03:09:56;98045.84;;;11.50;94.21
24620;BME280;12763;55.802;37.404;2023-03-24T03:12:26;98039.00;;;11.57;94.03
24620;BME280;12763;55.802;37.404;2023-03-24T03:15:00;98028.03;;;11.62;94.12
24620;BME280;12763;55.802;37.404;2023-03-24T03:17:33;98020.88;;;11.66;92.70
24620;BME280;12763;55.802;37.404;2023-03-24T03:20:17;98023.03;;;11.86;92.57
24620;BME280;12763;55.802;37.404;2023-03-24T03:23:04;98013.13;;;11.90;92.22
24620;BME280;12763;55.802;37.404;2023-03-24T03:25:42;98009.00;;;11.93;91.50
24620;BME280;12763;55.802;37.404;2023-03-24T03:28:12;98011.88;;;11.76;92.45
24620;BME280;12763;55.802;37.404;2023-03-24T03:30:55;98017.03;;;11.67;93.39
24620;BME280;12763;55.802;37.404;2023-03-24T03:33:26;98009.50;;;11.63;94.43
24620;BME280;12763;55.802;37.404;2023-03-24T03:36:02;98013.03;;;11.53;96.69
24620;BME280;12763;55.802;37.404;2023-03-24T03:38:47;98020.09;;;11.44;98.80
24620;BME280;12763;55.802;37.404;2023-03-24T03:41:15;98020.31;;;11.38;100.00
24620;BME280;12763;55.802;37.404;2023-03-24T03:43:45;98026.38;;;11.35;100.00
24620;BME280;12763;55.802;37.404;2023-03-24T03:46:11;98028.63;;;11.16;100.00
24620;BME280;12763;55.802;37.404;2023-03-24T03:48:38;98028.94;;;11.19;100.00
24620;BME280;12763;55.802;37.404;2023-03-24T03:51:05;98012.13;;;10.99;100.00
24620;BME280;12763;55.802;37.404;2023-03-24T03:53:51;98016.00;;;10.98;100.00
24620;BME280;12763;55.802;37.404;2023-03-24T03:56:25;98014.59;;;10.96;100.00
24620;BME280;12763;55.802;37.404;2023-03-24T03:59:28;98019.25;;;11.17;100.00
24620;BME280;12763;55.802;37.404;2023-03-24T04:01:56;98029.22;;;10.75;100.00
24620;BME280;12763;55.802;37.404;2023-03-24T04:19:37;98016.31;;;10.58;100.00
24620;BME280;12763;55.802;37.404;2023-03-24T04:22:50;98013.50;;;10.75;100.00
24620;BME280;12763;55.802;37.404;2023-03-24T04:31:04;98005.22;;;10.75;100.00
24620;BME280;12763;55.802;37.404;2023-03-24T04:33:48;98000.16;;;10.89;100.00
24620;BME280;12763;55.802;37.404;2023-03-24T04:36:27;98002.41;;;10.70;100.00
24620;BME280;12763;55.802;37.404;2023-03-24T04:39:18;98004.09;;;10.71;100.00
24620;BME280;12763;55.802;37.404;2023-03-24T04:41:56;98001.38;;;10.54;100.00
24620;BME280;12763;55.802;37.404;2023-03-24T04:44:26;97997.28;;;10.57;100.00
24620;BME280;12763;55.802;37.404;2023-03-24T04:47:25;98002.72;;;10.74;100.00
24620;BME280;12763;55.802;37.404;2023-03-24T04:50:08;98000.78;;;10.52;100.00
24620;BME280;12763;55.802;37.404;2023-03-24T04:52:38;97999.13;;;10.51;100.00
24620;BME280;12763;55.802;37.404;2023-03-24T04:57:52;98006.03;;;10.32;100.00
24620;BME280;12763;55.802;37.404;2023-03-24T05:00:18;98004.69;;;10.35;100.00
24620;BME280;12763;55.802;37.404;2023-03-24T05:02:44;98012.22;;;10.23;100.00
24620;BME280;12763;55.802;37.404;2023-03-24T05:05:17;98012.41;;;10.16;100.00
24620;BME280;12763;55.802;37.404;2023-03-24T05:07:46;98012.47;;;10.21;100.00
24620;BME280;12763;55.802;37.404;2023-03-24T05:10:15;98015.88;;;10.28;100.00
24620;BME280;12763;55.802;37.404;2023-03-24T05:12:49;98009.50;;;10.44;100.00
24620;BME280;12763;55.802;37.404;2023-03-24T05:15:24;98005.78;;;10.55;100.00
24620;BME280;12763;55.802;37.404;2023-03-24T05:17:56;98012.88;;;10.30;100.00
24620;BME280;12763;55.802;37.404;2023-03-24T05:20:24;98009.69;;;10.38;100.00
24620;BME280;12763;55.802;37.404;2023-03-24T05:22:50;98004.78;;;10.61;100.00
24620;BME280;12763;55.802;37.404;2023-03-24T05:25:17;98011.22;;;10.50;100.00
24620;BME280;12763;55.802;37.404;2023-03-24T05:27:44;98010.78;;;10.58;100.00
24620;BME280;12763;55.802;37.404;2023-03-24T05:30:19;98019.84;;;10.76;100.00
24620;BME280;12763;55.802;37.404;2023-03-24T05:32:46;98008.41;;;10.45;100.00
24620;BME280;12763;55.802;37.404;2023-03-24T05:35:12;98023.22;;;10.39;100.00
24620;BME280;12763;55.802;37.404;2023-03-24T05:37:39;98012.44;;;10.38;100.00
24620;BME280;12763;55.802;37.404;2023-03-24T05:40:06;98009.78;;;10.65;100.00
24620;BME280;12763;55.802;37.404;2023-03-24T05:42:55;98016.63;;;10.62;100.00
24620;BME280;12763;55.802;37.404;2023-03-24T05:45:24;98006.91;;;10.54;100.00
24620;BME280;12763;55.802;37.404;2023-03-24T05:47:50;98000.81;;;10.36;100.00
24620;BME280;12763;55.802;37.404;2023-03-24T05:50:22;97999.44;;;10.55;100.00
24620;BME280;12763;55.802;37.404;2023-03-24T05:52:49;98003.19;;;10.66;100.00
24620;BME280;12763;55.802;37.404;2023-03-24T05:55:38;98002.41;;;10.70;100.00
24620;BME280;12763;55.802;37.404;2023-03-24T05:58:17;97998.56;;;10.71;100.00
24620;BME280;12763;55.802;37.404;2023-03-24T06:00:48;98001.56;;;10.70;100.00
24620;BME280;12763;55.802;37.404;2023-03-24T06:03:23;98000.66;;;10.42;100.00
24620;BME280;12763;55.802;37.404;2023-03-24T06:05:59;98009.81;;;10.48;100.00
24620;BME280;12763;55.802;37.404;2023-03-24T06:08:25;98004.88;;;10.72;100.00
24620;BME280;12763;55.802;37.404;2023-03-24T06:10:58;97998.53;;;10.49;100.00
24620;BME280;12763;55.802;37.404;2023-03-24T06:13:25;97999.97;;;10.74;100.00
24620;BME280;12763;55.802;37.404;2023-03-24T06:15:51;97998.47;;;10.44;100.00
24620;BME280;12763;55.802;37.404;2023-03-24T06:18:34;98007.69;;;10.55;100.00
24620;BME280;12763;55.802;37.404;2023-03-24T06:21:10;98002.66;;;10.69;100.00
24620;BME280;12763;55.802;37.404;2023-03-24T06:23:36;98005.34;;;10.63;100.00
24620;BME280;12763;55.802;37.404;2023-03-24T06:26:08;98009.59;;;10.71;100.00
24620;BME280;12763;55.802;37.404;2023-03-24T06:28:36;98002.44;;;10.32;100.00
24620;BME280;12763;55.802;37.404;2023-03-24T06:31:11;98000.47;;;10.49;100.00
24620;BME280;12763;55.802;37.404;2023-03-24T06:33:43;98001.94;;;10.56;100.00
24620;BME280;12763;55.802;37.404;2023-03-24T06:36:09;98001.00;;;10.68;100.00
24620;BME280;12763;55.802;37.404;2023-03-24T06:38:37;98000.59;;;10.59;100.00
24620;BME280;12763;55.802;37.404;2023-03-24T06:41:05;98002.66;;;10.69;100.00
24620;BME280;12763;55.802;37.404;2023-03-24T06:43:31;98000.81;;;10.74;100.00
24620;BME280;12763;55.802;37.404;2023-03-24T06:45:58;97995.94;;;10.59;100.00
24620;BME280;12763;55.802;37.404;2023-03-24T06:48:24;98001.91;;;10.73;100.00
24620;BME280;12763;55.802;37.404;2023-03-24T06:50:57;97997.56;;;10.60;100.00
24620;BME280;12763;55.802;37.404;2023-03-24T06:53:23;98003.09;;;10.60;100.00
24620;BME280;12763;55.802;37.404;2023-03-24T06:55:49;97999.19;;;10.78;100.00
24620;BME280;12763;55.802;37.404;2023-03-24T06:58:16;97997.50;;;10.77;100.00
24620;BME280;12763;55.802;37.404;2023-03-24T07:00:55;98005.66;;;10.67;100.00
24620;BME280;12763;55.802;37.404;2023-03-24T07:03:30;98008.53;;;10.55;100.00
24620;BME280;12763;55.802;37.404;2023-03-24T07:06:22;98003.69;;;10.63;100.00
24620;BME280;12763;55.802;37.404;2023-03-24T07:08:55;98016.75;;;10.50;100.00
24620;BME280;12763;55.802;37.404;2023-03-24T07:11:25;98015.69;;;10.51;100.00
24620;BME280;12763;55.802;37.404;2023-03-24T07:13:55;98011.03;;;10.35;100.00
24620;BME280;12763;55.802;37.404;2023-03-24T07:16:21;98010.78;;;10.37;100.00
24620;BME280;12763;55.802;37.404;2023-03-24T07:18:54;98023.94;;;10.51;100.00
24620;BME280;12763;55.802;37.404;2023-03-24T07:21:20;98024.84;;;10.02;100.00
24620;BME280;12763;55.802;37.404;2023-03-24T07:23:49;98016.38;;;10.25;100.00
24620;BME280;12763;55.802;37.404;2023-03-24T07:26:17;98027.84;;;10.17;100.00
24620;BME280;12763;55.802;37.404;2023-03-24T07:28:46;98030.66;;;10.22;100.00
24620;BME280;12763;55.802;37.404;2023-03-24T07:31:19;98031.56;;;10.11;100.00
24620;BME280;12763;55.802;37.404;2023-03-24T07:33:51;98032.91;;;10.25;100.00
24620;BME280;12763;55.802;37.404;2023-03-24T07:36:17;98021.25;;;10.18;100.00
24620;BME280;12763;55.802;37.404;2023-03-24T07:38:43;98031.25;;;10.41;100.00
24620;BME280;12763;55.802;37.404;2023-03-24T07:41:14;98028.94;;;10.16;100.00
24620;BME280;12763;55.802;37.404;2023-03-24T07:43:47;98033.19;;;10.24;100.00
24620;BME280;12763;55.802;37.404;2023-03-24T07:46:31;98028.41;;;10.19;100.00
24620;BME280;12763;55.802;37.404;2023-03-24T07:48:57;98038.78;;;10.29;100.00
24620;BME280;12763;55.802;37.404;2023-03-24T07:51:23;98045.28;;;10.06;100.00
24620;BME280;12763;55.802;37.404;2023-03-24T07:53:56;98043.81;;;10.15;100.00
24620;BME280;12763;55.802;37.404;2023-03-24T07:56:31;98038.53;;;10.14;100.00
24620;BME280;12763;55.802;37.404;2023-03-24T07:58:59;98047.28;;;10.11;100.00
24620;BME280;12763;55.802;37.404;2023-03-24T08:01:51;98034.59;;;10.26;100.00
24620;BME280;12763;55.802;37.404;2023-03-24T08:04:27;98045.69;;;10.31;100.00
24620;BME280;12763;55.802;37.404;2023-03-24T08:07:00;98032.41;;;10.28;100.00
24620;BME280;12763;55.802;37.404;2023-03-24T08:09:27;98038.59;;;10.35;100.00
24620;BME280;12763;55.802;37.404;2023-03-24T08:11:53;98057.78;;;9.97;100.00
24620;BME280;12763;55.802;37.404;2023-03-24T08:14:19;98050.66;;;10.29;100.00
24620;BME280;12763;55.802;37.404;2023-03-24T08:16:44;98045.47;;;10.16;100.00
24620;BME280;12763;55.802;37.404;2023-03-24T08:19:10;98048.31;;;10.21;100.00
24620;BME280;12763;55.802;37.404;2023-03-24T08:21:36;98055.47;;;10.39;100.00
24620;BME280;12763;55.802;37.404;2023-03-24T08:24:02;98059.66;;;10.25;100.00
24620;BME280;12763;55.802;37.404;2023-03-24T08:26:28;98050.91;;;10.49;100.00
24620;BME280;12763;55.802;37.404;2023-03-24T08:28:55;98048.78;;;10.51;100.00
24620;BME280;12763;55.802;37.404;2023-03-24T08:31:21;98058.97;;;10.51;100.00
24620;BME280;12763;55.802;37.404;2023-03-24T08:33:46;98051.28;;;10.36;100.00
24620;BME280;12763;55.802;37.404;2023-03-24T08:36:12;98048.09;;;10.44;100.00
24620;BME280;12763;55.802;37.404;2023-03-24T08:38:38;98067.16;;;10.46;100.00
24620;BME280;12763;55.802;37.404;2023-03-24T08:41:05;98063.78;;;10.60;100.00
24620;BME280;12763;55.802;37.404;2023-03-24T08:43:33;98047.75;;;10.57;100.00
24620;BME280;12763;55.802;37.404;2023-03-24T08:46:00;98062.72;;;10.45;100.00
24620;BME280;12763;55.802;37.404;2023-03-24T08:48:28;98065.66;;;10.38;100.00
24620;BME280;12763;55.802;37.404;2023-03-24T08:50:54;98072.97;;;10.49;100.00
24620;BME280;12763;55.802;37.404;2023-03-24T08:53:20;98070.97;;;10.61;100.00
24620;BME280;12763;55.802;37.404;2023-03-24T08:55:47;98064.31;;;10.57;100.00
24620;BME280;12763;55.802;37.404;2023-03-24T08:58:15;98063.13;;;10.53;100.00
24620;BME280;12763;55.802;37.404;2023-03-24T09:00:42;98069.50;;;10.54;100.00
24620;BME280;12763;55.802;37.404;2023-03-24T09:03:12;98073.53;;;10.46;100.00
24620;BME280;12763;55.802;37.404;2023-03-24T09:05:39;98066.19;;;10.35;100.00
24620;BME280;12763;55.802;37.404;2023-03-24T09:08:05;98076.34;;;10.51;100.00
24620;BME280;12763;55.802;37.404;2023-03-24T09:10:32;98077.50;;;10.55;100.00
24620;BME280;12763;55.802;37.404;2023-03-24T09:12:58;98076.34;;;10.51;100.00
24620;BME280;12763;55.802;37.404;2023-03-24T09:15:24;98075.09;;;10.42;100.00
24620;BME280;12763;55.802;37.404;2023-03-24T09:17:50;98077.34;;;10.45;100.00
24620;BME280;12763;55.802;37.404;2023-03-24T09:20:16;98079.44;;;10.38;100.00
24620;BME280;12763;55.802;37.404;2023-03-24T09:22:44;98081.25;;;10.49;100.00
24620;BME280;12763;55.802;37.404;2023-03-24T09:25:13;98089.16;;;10.41;100.00
24620;BME280;12763;55.802;37.404;2023-03-24T09:27:40;98089.47;;;10.44;100.00
24620;BME280;12763;55.802;37.404;2023-03-24T09:30:07;98080.19;;;10.50;100.00
24620;BME280;12763;55.802;37.404;2023-03-24T09:32:34;98094.03;;;10.55;100.00
24620;BME280;12763;55.802;37.404;2023-03-24T09:35:00;98087.44;;;10.56;100.00
24620;BME280;12763;55.802;37.404;2023-03-24T09:37:30;98103.75;;;10.41;100.00
24620;BME280;12763;55.802;37.404;2023-03-24T09:39:57;98105.59;;;10.36;100.00
24620;BME280;12763;55.802;37.404;2023-03-24T09:42:29;98108.00;;;10.66;100.00
24620;BME280;12763;55.802;37.404;2023-03-24T09:44:59;98102.38;;;10.60;100.00
24620;BME280;12763;55.802;37.404;2023-03-24T09:47:33;98105.56;;;10.52;100.00
24620;BME280;12763;55.802;37.404;2023-03-24T09:50:05;98099.16;;;10.47;100.00
24620;BME280;12763;55.802;37.404;2023-03-24T09:52:39;98109.75;;;10.55;100.00
24620;BME280;12763;55.802;37.404;2023-03-24T09:55:16;98122.97;;;10.20;100.00
24620;BME280;12763;55.802;37.404;2023-03-24T09:57:46;98118.63;;;10.40;100.00
24620;BME280;12763;55.802;37.404;2023-03-24T10:00:28;98109.44;;;10.35;100.00
24620;BME280;12763;55.802;37.404;2023-03-24T10:03:00;98134.34;;;10.23;100.00
24620;BME280;12763;55.802;37.404;2023-03-24T10:05:44;98127.47;;;10.59;100.00
24620;BME280;12763;55.802;37.404;2023-03-24T10:08:42;98123.00;;;10.75;100.00
24620;BME280;12763;55.802;37.404;2023-03-24T10:13:42;98118.34;;;10.75;100.00
24620;BME280;12763;55.802;37.404;2023-03-24T10:16:49;98116.06;;;10.72;100.00
24620;BME280;12763;55.802;37.404;2023-03-24T10:21:39;98125.06;;;10.63;100.00
24620;BME280;12763;55.802;37.404;2023-03-24T10:24:23;98125.25;;;10.78;100.00
24620;BME280;12763;55.802;37.404;2023-03-24T10:26:57;98119.91;;;10.88;100.00
24620;BME280;12763;55.802;37.404;2023-03-24T10:29:31;98119.09;;;11.09;100.00
24620;BME280;12763;55.802;37.404;2023-03-24T10:32:14;98133.53;;;11.16;100.00
24620;BME280;12763;55.802;37.404;2023-03-24T10:34:43;98116.72;;;11.39;100.00
24620;BME280;12763;55.802;37.404;2023-03-24T10:37:13;98116.91;;;11.33;100.00
24620;BME280;12763;55.802;37.404;2023-03-24T10:39:40;98119.41;;;11.34;100.00
24620;BME280;12763;55.802;37.404;2023-03-24T10:42:13;98121.22;;;11.45;100.00
24620;BME280;12763;55.802;37.404;2023-03-24T10:44:41;98130.19;;;11.14;100.00
24620;BME280;12763;55.802;37.404;2023-03-24T10:47:09;98119.53;;;11.01;100.00
24620;BME280;12763;55.802;37.404;2023-03-24T10:49:37;98131.22;;;11.08;100.00
24620;BME280;12763;55.802;37.404;2023-03-24T10:52:08;98130.56;;;11.01;100.00
24620;BME280;12763;55.802;37.404;2023-03-24T10:54:34;98128.50;;;11.13;100.00
24620;BME280;12763;55.802;37.404;2023-03-24T10:57:03;98143.13;;;10.92;100.00
24620;BME280;12763;55.802;37.404;2023-03-24T11:04:36;98154.47;;;11.77;100.00
24620;BME280;12763;55.802;37.404;2023-03-24T11:07:17;98149.63;;;12.16;100.00
24620;BME280;12763;55.802;37.404;2023-03-24T11:10:05;98137.84;;;12.62;100.00
24620;BME280;12763;55.802;37.404;2023-03-24T11:12:34;98128.66;;;12.93;100.00
24620;BME280;12763;55.802;37.404;2023-03-24T11:15:21;98122.66;;;13.59;100.00
24620;BME280;12763;55.802;37.404;2023-03-24T11:23:25;98125.91;;;12.98;100.00
24620;BME280;12763;55.802;37.404;2023-03-24T11:26:14;98123.91;;;12.84;100.00
24620;BME280;12763;55.802;37.404;2023-03-24T11:28:45;98134.47;;;12.55;100.00
24620;BME280;12763;55.802;37.404;2023-03-24T11:31:13;98125.53;;;12.80;100.00
24620;BME280;12763;55.802;37.404;2023-03-24T11:34:01;98141.31;;;12.16;100.00
24620;BME280;12763;55.802;37.404;2023-03-24T11:47:32;98160.22;;;12.56;100.00
24620;BME280;12763;55.802;37.404;2023-03-24T12:00:42;98166.88;;;12.96;100.00
24620;BME280;12763;55.802;37.404;2023-03-24T12:11:07;98186.78;;;12.25;100.00
24620;BME280;12763;55.802;37.404;2023-03-24T12:13:39;98185.59;;;12.48;100.00
24620;BME280;12763;55.802;37.404;2023-03-24T12:19:50;98197.19;;;13.08;100.00
24620;BME280;12763;55.802;37.404;2023-03-24T12:38:57;98195.28;;;13.14;100.00
24620;BME280;12763;55.802;37.404;2023-03-24T12:55:44;98194.19;;;13.72;100.00
24620;BME280;12763;55.802;37.404;2023-03-24T13:01:37;98200.75;;;15.28;91.50
24620;BME280;12763;55.802;37.404;2023-03-24T13:04:14;98203.56;;;16.62;82.00
24620;BME280;12763;55.802;37.404;2023-03-24T13:07:12;98201.38;;;17.74;74.72
24620;BME280;12763;55.802;37.404;2023-03-24T13:12:31;98185.13;;;18.23;72.32
24620;BME280;12763;55.802;37.404;2023-03-24T13:15:33;98186.06;;;18.56;66.13
24620;BME280;12763;55.802;37.404;2023-03-24T13:31:30;98188.13;;;17.37;73.18
24620;BME280;12763;55.802;37.404;2023-03-24T13:34:01;98196.06;;;16.52;78.55
24620;BME280;12763;55.802;37.404;2023-03-24T13:36:52;98207.72;;;16.64;73.66
24620;BME280;12763;55.802;37.404;2023-03-24T13:39:22;98210.59;;;16.44;76.30
24620;BME280;12763;55.802;37.404;2023-03-24T13:41:52;98207.28;;;15.83;79.50
24620;BME280;12763;55.802;37.404;2023-03-24T13:44:22;98223.81;;;15.39;81.36
24620;BME280;12763;55.802;37.404;2023-03-24T13:47:18;98214.41;;;14.69;85.19
24620;BME280;12763;55.802;37.404;2023-03-24T13:50:02;98216.72;;;13.95;90.27
24620;BME280;12763;55.802;37.404;2023-03-24T13:52:43;98259.31;;;13.22;92.44
24620;BME280;12763;55.802;37.404;2023-03-24T13:55:29;98224.34;;;13.11;93.91
24620;BME280;12763;55.802;37.404;2023-03-24T13:58:04;98241.53;;;13.18;94.75
24620;BME280;12763;55.802;37.404;2023-03-24T14:03:42;98221.50;;;13.06;95.37
24620;BME280;12763;55.802;37.404;2023-03-24T14:06:16;98221.75;;;13.41;93.71
24620;BME280;12763;55.802;37.404;2023-03-24T14:08:55;98229.72;;;12.96;97.38
24620;BME280;12763;55.802;37.404;2023-03-24T14:16:49;98227.88;;;12.70;100.00
24620;BME280;12763;55.802;37.404;2023-03-24T14:19:20;98246.50;;;12.53;100.00
24620;BME280;12763;55.802;37.404;2023-03-24T14:22:03;98241.97;;;12.73;100.00
24620;BME280;12763;55.802;37.404;2023-03-24T14:24:34;98248.00;;;12.65;100.00
24620;BME280;12763;55.802;37.404;2023-03-24T14:27:29;98254.53;;;12.54;100.00
24620;BME280;12763;55.802;37.404;2023-03-24T14:30:12;98246.56;;;12.58;100.00
24620;BME280;12763;55.802;37.404;2023-03-24T14:32:46;98262.91;;;12.59;100.00
24620;BME280;12763;55.802;37.404;2023-03-24T14:38:00;98258.47;;;12.31;100.00
24620;BME280;12763;55.802;37.404;2023-03-24T14:40:35;98250.53;;;12.67;100.00
24620;BME280;12763;55.802;37.404;2023-03-24T14:45:58;98248.31;;;12.37;100.00
24620;BME280;12763;55.802;37.404;2023-03-24T14:48:32;98245.38;;;12.22;100.00
24620;BME280;12763;55.802;37.404;2023-03-24T14:51:05;98246.06;;;12.34;100.00
24620;BME280;12763;55.802;37.404;2023-03-24T14:53:34;98259.72;;;11.97;100.00
24620;BME280;12763;55.802;37.404;2023-03-24T14:56:01;98266.69;;;12.00;100.00
24620;BME280;12763;55.802;37.404;2023-03-24T14:58:31;98267.59;;;11.84;100.00
24620;BME280;12763;55.802;37.404;2023-03-24T15:01:03;98275.31;;;11.82;100.00
24620;BME280;12763;55.802;37.404;2023-03-24T15:03:55;98284.84;;;11.74;100.00
24620;BME280;12763;55.802;37.404;2023-03-24T15:06:22;98288.47;;;11.74;100.00
24620;BME280;12763;55.802;37.404;2023-03-24T15:11:19;98291.69;;;11.88;100.00
24620;BME280;12763;55.802;37.404;2023-03-24T15:13:49;98288.75;;;11.56;100.00
24620;BME280;12763;55.802;37.404;2023-03-24T15:18:51;98307.38;;;11.66;100.00
24620;BME280;12763;55.802;37.404;2023-03-24T15:21:32;98299.28;;;11.76;100.00
24620;BME280;12763;55.802;37.404;2023-03-24T15:23:58;98308.31;;;11.71;100.00
24620;BME280;12763;55.802;37.404;2023-03-24T15:26:27;98309.03;;;11.84;100.00
24620;BME280;12763;55.802;37.404;2023-03-24T15:29:04;98339.63;;;11.60;100.00
24620;BME280;12763;55.802;37.404;2023-03-24T15:31:31;98310.16;;;11.49;100.00
24620;BME280;12763;55.802;37.404;2023-03-24T15:34:05;98306.69;;;11.37;100.00
24620;BME280;12763;55.802;37.404;2023-03-24T15:36:39;98309.66;;;11.52;100.00
24620;BME280;12763;55.802;37.404;2023-03-24T15:39:19;98312.06;;;11.65;98.68
24620;BME280;12763;55.802;37.404;2023-03-24T15:41:50;98322.41;;;11.53;98.21
24620;BME280;12763;55.802;37.404;2023-03-24T15:44:23;98333.22;;;11.38;98.82
24620;BME280;12763;55.802;37.404;2023-03-24T15:46:49;98324.81;;;11.50;98.16
24620;BME280;12763;55.802;37.404;2023-03-24T15:49:33;98330.94;;;11.35;99.08
24620;BME280;12763;55.802;37.404;2023-03-24T15:52:21;98329.09;;;11.41;98.58
24620;BME280;12763;55.802;37.404;2023-03-24T15:54:46;98348.38;;;11.19;99.25
24620;BME280;12763;55.802;37.404;2023-03-24T15:57:22;98333.91;;;11.29;98.25
24620;BME280;12763;55.802;37.404;2023-03-24T16:00:04;98344.53;;;11.20;98.46
24620;BME280;12763;55.802;37.404;2023-03-24T16:02:49;98340.16;;;11.41;97.86
24620;BME280;12763;55.802;37.404;2023-03-24T16:05:23;98351.03;;;11.47;97.25
24620;BME280;12763;55.802;37.404;2023-03-24T16:07:59;98352.03;;;11.41;97.01
24620;BME280;12763;55.802;37.404;2023-03-24T16:10:38;98347.00;;;11.38;98.07
24620;BME280;12763;55.802;37.404;2023-03-24T16:13:15;98342.31;;;11.55;95.94